createdAt,value
2022-12-04T06:36:53.166Z,89.80
2022-12-04T06:41:55.194Z,89.97
2022-12-04T06:47:00.736Z,90.03
2022-12-04T06:52:03.918Z,89.88
2022-12-04T06:57:05.971Z,89.73
2022-12-04T07:02:09.492Z,89.69
2022-12-04T07:07:11.742Z,89.48
2022-12-04T07:12:13.786Z,89.60
2022-12-04T07:17:15.909Z,89.34
2022-12-04T07:22:17.966Z,89.19
2022-12-04T07:27:19.979Z,89.20
2022-12-04T07:32:22.001Z,88.88
2022-12-04T07:37:24.031Z,88.71
2022-12-04T07:42:26.025Z,88.24
2022-12-04T07:47:28.001Z,87.71
2022-12-04T07:52:30.118Z,87.11
2022-12-04T07:57:32.134Z,86.55
2022-12-04T08:02:34.145Z,85.81
2022-12-04T08:07:36.152Z,85.25
2022-12-04T08:12:38.193Z,84.50
2022-12-04T08:17:40.218Z,84.08
2022-12-04T08:22:42.380Z,83.61
2022-12-04T08:27:47.745Z,83.19
2022-12-04T08:32:50.191Z,82.41
2022-12-04T08:37:52.238Z,81.87
2022-12-04T08:42:54.273Z,81.11
2022-12-04T08:47:56.303Z,80.47
2022-12-04T08:52:58.740Z,79.91
2022-12-04T08:58:00.753Z,79.56
2022-12-04T09:03:02.834Z,79.29
2022-12-04T09:08:06.144Z,79.01
2022-12-04T09:13:08.698Z,78.56
2022-12-04T09:18:10.703Z,78.09
2022-12-04T09:23:12.697Z,77.38
2022-12-04T09:28:14.725Z,76.41
2022-12-04T09:33:16.724Z,75.35
2022-12-04T09:38:18.889Z,74.26
2022-12-04T09:43:59.869Z,73.96
2022-12-04T09:49:11.555Z,73.02
2022-12-04T09:54:17.910Z,71.16
2022-12-04T09:59:24.531Z,69.56
2022-12-04T10:04:26.673Z,68.44
2022-12-04T10:09:40.236Z,66.68
2022-12-04T10:14:46.550Z,63.23
2022-12-04T10:20:08.945Z,59.11
2022-12-04T10:25:22.240Z,59.40
2022-12-04T10:30:27.392Z,55.86
2022-12-04T10:35:32.330Z,50.11
2022-12-04T10:40:56.787Z,45.57
2022-12-04T10:45:59.005Z,42.15
2022-12-04T10:51:01.113Z,40.20
2022-12-04T10:56:14.775Z,38.19
2022-12-04T11:01:16.827Z,35.95
2022-12-04T11:06:25.269Z,36.10
2022-12-04T11:11:30.920Z,36.83
2022-12-04T11:16:40.644Z,36.05
2022-12-04T11:21:42.752Z,35.96
2022-12-04T11:26:47.700Z,33.92
2022-12-04T11:31:53.179Z,33.99
2022-12-04T11:36:57.134Z,34.19
2022-12-04T11:42:04.968Z,33.67
2022-12-04T11:47:18.305Z,37.90
2022-12-04T11:52:38.943Z,38.70
2022-12-04T11:57:48.219Z,37.31
2022-12-04T12:03:19.678Z,36.95
2022-12-04T12:08:45.911Z,38.10
2022-12-04T12:14:18.853Z,39.13
2022-12-04T12:19:33.499Z,41.30
2022-12-04T12:24:51.349Z,42.14
2022-12-04T12:30:06.012Z,43.50
2022-12-04T12:35:22.712Z,45.96
2022-12-04T12:40:41.685Z,49.34
2022-12-04T12:45:49.698Z,51.11
2022-12-04T12:51:22.038Z,52.71
2022-12-04T12:56:31.482Z,53.33
2022-12-04T13:02:10.807Z,53.27
2022-12-04T13:07:19.824Z,54.72
2022-12-04T13:12:23.811Z,55.76
2022-12-04T13:17:37.314Z,55.61
2022-12-04T13:23:10.998Z,56.54
2022-12-04T13:28:26.422Z,56.37
2022-12-04T13:33:37.393Z,57.63
2022-12-04T13:39:19.060Z,58.65
2022-12-04T13:44:24.111Z,60.63
2022-12-04T13:49:32.119Z,61.70
2022-12-04T13:54:36.596Z,62.25
2022-12-04T13:59:40.065Z,63.20
2022-12-04T14:04:53.158Z,63.80
2022-12-04T14:09:57.630Z,64.18
2022-12-04T14:15:04.859Z,64.76
2022-12-04T14:20:21.682Z,65.83
2022-12-04T14:25:34.829Z,66.01
2022-12-04T14:30:39.301Z,66.38
2022-12-04T14:36:24.743Z,67.03
2022-12-04T14:41:27.294Z,67.55
2022-12-04T14:46:39.337Z,67.93
2022-12-04T14:51:54.370Z,68.46
2022-12-04T14:57:24.266Z,69.95
2022-12-04T15:02:34.464Z,69.26
2022-12-04T15:07:37.088Z,69.21
2022-12-04T15:12:49.350Z,69.45
2022-12-04T15:18:05.265Z,69.64
2022-12-04T15:23:11.942Z,69.98
2022-12-04T15:28:31.296Z,70.15
2022-12-04T15:33:37.430Z,70.47
2022-12-04T15:38:40.527Z,70.95
2022-12-04T15:43:43.971Z,71.75
2022-12-04T15:48:48.014Z,72.25
2022-12-04T15:53:50.241Z,72.77
2022-12-04T15:59:00.160Z,73.31
2022-12-04T16:04:02.290Z,73.59
2022-12-04T16:09:22.540Z,73.93
2022-12-04T16:14:24.608Z,74.12
2022-12-04T16:19:33.961Z,74.40
2022-12-04T16:24:35.991Z,74.49
2022-12-04T16:29:38.045Z,74.68
2022-12-04T16:34:40.370Z,75.01
2022-12-04T16:39:42.475Z,75.12
2022-12-04T16:44:45.235Z,75.30
2022-12-04T16:49:49.866Z,75.56
2022-12-04T16:54:51.998Z,75.60
2022-12-04T16:59:54.164Z,75.58
2022-12-04T17:04:58.027Z,75.55
2022-12-04T17:10:00.347Z,75.62
2022-12-04T17:15:02.381Z,75.96
2022-12-04T17:20:11.527Z,76.19
2022-12-04T17:25:14.157Z,75.94
2022-12-04T17:30:16.445Z,76.20
2022-12-04T17:35:18.609Z,76.03
2022-12-04T17:40:20.707Z,75.88
2022-12-04T17:45:22.782Z,76.09
2022-12-04T17:50:24.801Z,76.26
2022-12-04T17:55:26.778Z,76.23
2022-12-04T18:00:28.775Z,76.22
2022-12-04T18:05:30.941Z,76.34
2022-12-04T18:10:34.823Z,76.50
2022-12-04T18:15:36.826Z,76.66
2022-12-04T18:20:39.099Z,76.77
2022-12-04T18:25:41.144Z,76.69
2022-12-04T18:30:43.219Z,76.86
2022-12-04T18:35:54.375Z,76.94
2022-12-04T18:41:01.300Z,76.94
2022-12-04T18:46:07.903Z,77.29
2022-12-04T18:51:34.858Z,77.52
2022-12-04T18:56:37.239Z,77.83
2022-12-04T19:01:39.992Z,78.12
2022-12-04T19:06:45.223Z,77.93
2022-12-04T19:11:47.402Z,77.58
2022-12-04T19:16:49.941Z,77.68
2022-12-04T19:21:52.010Z,78.09
2022-12-04T19:26:54.168Z,77.41
2022-12-04T19:31:59.206Z,77.12
2022-12-04T19:37:02.424Z,76.99
2022-12-04T19:42:04.508Z,76.57
2022-12-04T19:47:07.070Z,76.84
2022-12-04T19:52:09.132Z,76.89
2022-12-04T19:57:11.257Z,77.18
2022-12-04T20:02:13.997Z,77.23
2022-12-04T20:07:16.758Z,77.17
2022-12-04T20:12:18.807Z,77.16
2022-12-04T20:17:20.815Z,76.98
2022-12-04T20:22:22.948Z,77.20
2022-12-04T20:27:24.965Z,77.09
2022-12-04T20:32:26.975Z,77.34
2022-12-04T20:37:28.998Z,77.35
2022-12-04T20:42:33.585Z,77.46
2022-12-04T20:47:36.482Z,77.77
2022-12-04T20:52:38.534Z,78.52
2022-12-04T20:57:40.560Z,79.03
2022-12-04T21:02:43.612Z,78.80
2022-12-04T21:07:45.698Z,78.52
2022-12-04T21:13:06.501Z,78.58
2022-12-04T21:18:08.676Z,78.50
2022-12-04T21:23:10.764Z,78.72
2022-12-04T21:28:12.798Z,78.33
2022-12-04T21:33:14.830Z,78.42
2022-12-04T21:38:16.855Z,78.50
2022-12-04T21:43:18.856Z,78.52
2022-12-04T21:48:20.854Z,78.72
